createdAt,value
2022-08-25T00:07:53.858Z,101512.47
2022-08-25T00:17:58.318Z,101515.56
2022-08-25T00:28:04.112Z,101515.47
2022-08-25T00:38:13.133Z,101516.28
2022-08-25T00:48:16.118Z,101518.75
2022-08-25T00:58:24.958Z,101507.47
2022-08-25T01:08:29.707Z,101514.38
2022-08-25T01:18:50.178Z,101507.47
2022-08-25T01:29:12.976Z,101505.78
2022-08-25T01:39:16.687Z,101506.94
2022-08-25T01:49:21.114Z,101503.00
2022-08-25T01:59:24.581Z,101506.25
2022-08-25T02:09:29.438Z,101511.13
2022-08-25T02:19:32.526Z,101498.56
2022-08-25T02:29:36.792Z,101508.16
2022-08-25T02:39:39.563Z,101499.56
2022-08-25T02:49:44.670Z,101494.31
2022-08-25T02:59:48.527Z,101483.88
2022-08-25T03:09:52.869Z,101474.25
2022-08-25T03:19:55.665Z,101465.50
2022-08-25T03:29:59.933Z,101464.50
2022-08-25T03:40:03.096Z,101456.78
2022-08-25T03:50:11.314Z,101453.44
2022-08-25T04:00:14.634Z,101441.53
2022-08-25T04:10:19.201Z,101432.16
2022-08-25T04:20:22.351Z,101435.47
2022-08-25T04:30:26.725Z,101430.22
2022-08-25T04:40:29.780Z,101416.16
2022-08-25T04:50:34.138Z,101414.44
2022-08-25T05:00:37.779Z,101410.00
2022-08-25T05:10:43.212Z,101417.94
2022-08-25T05:20:46.816Z,101429.91
2022-08-25T05:30:51.936Z,101442.09
2022-08-25T05:40:58.165Z,101436.09
2022-08-25T05:51:06.682Z,101452.56
2022-08-25T06:01:28.175Z,101451.84
2022-08-25T06:11:32.584Z,101458.06
2022-08-25T06:21:37.389Z,101442.94
2022-08-25T06:31:42.682Z,101452.22
2022-08-25T06:41:45.960Z,101450.91
2022-08-25T06:51:50.806Z,101458.19
2022-08-25T07:01:54.018Z,101452.22
2022-08-25T07:11:58.907Z,101427.94
2022-08-25T07:22:02.163Z,101420.00
2022-08-25T07:32:07.757Z,101430.25
2022-08-25T07:42:16.665Z,101428.38
2022-08-25T07:52:23.838Z,101425.50
2022-08-25T08:02:27.457Z,101418.84
2022-08-25T08:12:32.584Z,101407.66
2022-08-25T08:22:35.812Z,101405.09
2022-08-25T08:33:08.146Z,101415.44
2022-08-25T08:43:18.223Z,101404.28
2022-08-25T08:53:28.757Z,101393.25
2022-08-25T09:03:40.655Z,101397.22
2022-08-25T09:14:10.436Z,101399.25
2022-08-25T09:24:26.829Z,101389.13
2022-08-25T09:34:35.068Z,101393.59
2022-08-25T09:44:44.308Z,101375.94
2022-08-25T09:54:50.324Z,101364.47
2022-08-25T10:04:54.377Z,101359.75
2022-08-25T10:14:58.812Z,101340.94
2022-08-25T10:25:04.748Z,101318.94
2022-08-25T10:35:14.803Z,101314.19
2022-08-25T10:45:41.278Z,101291.47
2022-08-25T10:56:09.379Z,101283.97
2022-08-25T11:06:18.777Z,101287.13
2022-08-25T11:16:36.158Z,101280.78
2022-08-25T11:26:54.813Z,101260.22
2022-08-25T11:37:11.115Z,101250.97
2022-08-25T11:47:36.906Z,101256.25
2022-08-25T11:57:54.569Z,101250.72
2022-08-25T12:08:22.950Z,101248.41
2022-08-25T12:18:46.324Z,101230.91
2022-08-25T12:29:02.416Z,101227.94
2022-08-25T12:39:19.255Z,101216.47
2022-08-25T12:49:32.902Z,101212.53
2022-08-25T12:59:42.862Z,101199.38
2022-08-25T13:10:27.222Z,101195.56
2022-08-25T13:20:31.694Z,101194.53
2022-08-25T13:30:40.166Z,101186.16
2022-08-25T13:40:44.957Z,101168.84
2022-08-25T13:50:51.833Z,101169.72
2022-08-25T14:01:22.143Z,101168.06
2022-08-25T14:11:41.926Z,101150.06
2022-08-25T14:21:46.848Z,101157.81
2022-08-25T14:31:53.879Z,101147.19
2022-08-25T14:41:58.533Z,101142.69
2022-08-25T14:52:08.731Z,101143.94
2022-08-25T15:02:20.040Z,101125.84
2022-08-25T15:12:44.116Z,101128.34
2022-08-25T15:22:49.032Z,101119.56
2022-08-25T15:32:52.189Z,101111.09
2022-08-25T15:43:18.982Z,101111.31
2022-08-25T15:53:23.066Z,101111.97
2022-08-25T16:03:31.662Z,101111.91
2022-08-25T16:13:38.448Z,101110.81
2022-08-25T16:23:51.536Z,101103.22
2022-08-25T16:33:58.263Z,101105.97
2022-08-25T16:44:11.116Z,101106.50
2022-08-25T16:54:35.927Z,101096.44
2022-08-25T17:04:42.490Z,101103.13
2022-08-25T17:14:47.006Z,101089.19
2022-08-25T17:24:53.422Z,101080.03
2022-08-25T17:35:04.804Z,101097.75
2022-08-25T17:45:10.834Z,101093.03
2022-08-25T17:55:14.028Z,101094.25
2022-08-25T18:05:19.995Z,101099.38
2022-08-25T18:15:24.270Z,101143.91
2022-08-25T18:25:32.185Z,101151.56
2022-08-25T18:35:35.212Z,101150.03
2022-08-25T18:45:43.845Z,101159.34
2022-08-25T18:55:47.669Z,101176.44
2022-08-25T19:05:57.210Z,101185.22
2022-08-25T19:16:00.644Z,101200.81
2022-08-25T19:26:05.965Z,101222.19
2022-08-25T19:36:10.609Z,101235.56
2022-08-25T19:46:16.156Z,101258.97
2022-08-25T19:56:23.521Z,101262.47
2022-08-25T20:06:27.959Z,101269.16
2022-08-25T20:16:31.082Z,101278.69
2022-08-25T20:26:35.540Z,101303.53
2022-08-25T20:36:39.998Z,101310.19
2022-08-25T20:46:54.668Z,101310.66
2022-08-25T20:56:58.055Z,101328.28
2022-08-25T21:07:03.030Z,101340.19
2022-08-25T21:17:06.714Z,101345.28
2022-08-25T21:27:11.099Z,101348.22
2022-08-25T21:37:14.051Z,101357.91
2022-08-25T21:47:21.255Z,101370.69
2022-08-25T21:57:24.627Z,101360.78
2022-08-25T22:07:29.152Z,101368.31
2022-08-25T22:17:37.936Z,101395.94
2022-08-25T22:27:42.832Z,101394.22
2022-08-25T22:37:47.014Z,101401.13
2022-08-25T22:47:52.277Z,101396.97
2022-08-25T22:57:56.006Z,101395.56
2022-08-25T23:08:00.937Z,101406.41
2022-08-25T23:18:03.911Z,101403.16
2022-08-25T23:28:08.445Z,101402.53
2022-08-25T23:38:12.658Z,101401.84
2022-08-25T23:48:18.614Z,101400.56
2022-08-25T23:58:22.570Z,101405.94
